Archival Weather

Chicago O'Hare International

Chicago, Illinois (KORD)

Report from: Monday, December 12, 2022 3:51 PM CST
Current time: Friday, June 21, 2024 1:54 AM CDT

Current weather – Weather history – Daily summaries
Weather forecast

Temperature4.4°C (39.9°F)
Wind chill0.5°C (32.9°F)
Dew point-2.2°C (28.0°F)
Winds 10 kts (5.1 m/s, 11.5 mph) East (80°)
Visibility10 mi. (16.1 km)
Clouds Ceiling: Overcast 3,100 ft. (945 m)
Altimeter30.26 in.Hg (1025 mB)
Relative humidity62 %
Density altitude-1,607 ft. (-490 m)
Sea-level pressure102.5 kPa (1025 mB, 30.27 in.Hg)
Remarks Automated weather observing station with precipitation discriminator
Flight conditions Visual Meteorological Conditions
Raw dataKORD 122151Z 08010KT 10SM OVC031 04/M02 A3026 RMK AO2 SLP252 T00441022
An error has occurred. This application may no longer respond until reloaded. Reload 🗙